Terminal Aerodrome Forecast
Issued by NWS Corpus Christi, TX

Home | Current Version | Previous Version | Text Only | Print | Product List | Glossary On
Versions: 1 2 3 4 5 6 7 8 9 10 11 12 13 14 15 16 17
736
FTUS44 KCRP 242339
TAFVCT
TAF
KVCT 242339Z 2500/2524 16005KT P6SM SCT250
     FM250300 VRB04KT P6SM FEW006 BKN250
     FM250900 VRB02KT 3SM BR SCT006 BKN012
      TEMPO 2510/2513 1SM BR
     FM251400 14007KT P6SM SCT030 BKN150
      TEMPO 2514/2516 BKN030
     FM252100 12012KT P6SM SCT040 BKN100=

USA.gov is the U.S. government's official web portal to all federal, state and local government web resources and services.